createdAt,value
2017-05-14T00:00:19.747Z,99.99
2017-05-14T00:01:19.767Z,99.99
2017-05-14T00:02:19.791Z,99.99
2017-05-14T00:03:19.815Z,99.99
2017-05-14T00:04:19.843Z,99.99
2017-05-14T00:05:19.862Z,99.99
2017-05-14T00:06:19.885Z,99.99
2017-05-14T00:07:19.909Z,99.99
2017-05-14T00:08:19.931Z,99.99
2017-05-14T00:09:19.959Z,99.99
2017-05-14T00:10:19.980Z,99.99
2017-05-14T00:11:20.006Z,99.99
2017-05-14T00:13:20.051Z,99.99
2017-05-14T00:14:20.074Z,99.99
2017-05-14T00:15:34.713Z,99.99
2017-05-14T00:16:20.123Z,99.99
2017-05-14T00:17:20.145Z,99.99
2017-05-14T00:18:20.172Z,99.99
2017-05-14T00:19:20.194Z,99.99
2017-05-14T00:20:20.213Z,99.99
2017-05-14T00:21:20.238Z,99.99
2017-05-14T00:22:20.263Z,99.99
2017-05-14T00:23:20.284Z,99.99
2017-05-14T00:24:20.310Z,99.99
2017-05-14T00:25:20.332Z,99.99
2017-05-14T00:26:20.358Z,99.99
2017-05-14T00:28:20.406Z,99.99
2017-05-14T00:29:20.426Z,99.99
2017-05-14T00:30:20.449Z,99.99
2017-05-14T00:31:35.088Z,99.99
2017-05-14T00:32:20.193Z,99.99
2017-05-14T00:33:20.522Z,99.99
2017-05-14T00:34:20.545Z,99.99
2017-05-14T00:35:20.565Z,99.99
2017-05-14T00:36:20.589Z,99.99
2017-05-14T00:37:20.613Z,99.99
2017-05-14T00:38:20.637Z,99.99
2017-05-14T00:39:20.662Z,99.99
2017-05-14T00:40:20.682Z,99.99
2017-05-14T00:41:20.401Z,99.99
2017-05-14T00:43:20.452Z,99.99
2017-05-14T00:44:20.476Z,99.99
2017-05-14T00:45:20.801Z,99.99
2017-05-14T00:46:35.441Z,99.99
2017-05-14T00:47:20.848Z,99.99
2017-05-14T00:48:20.872Z,99.99
2017-05-14T00:49:20.893Z,99.99
2017-05-14T00:50:20.917Z,99.99
2017-05-14T00:51:20.943Z,99.99
2017-05-14T00:52:20.963Z,99.99
2017-05-14T00:53:20.988Z,99.99
2017-05-14T00:54:21.013Z,99.99
2017-05-14T00:55:21.036Z,99.99
2017-05-14T00:56:21.057Z,99.99
2017-05-14T00:57:21.081Z,99.99
2017-05-14T00:59:21.129Z,99.99
2017-05-14T01:00:21.152Z,99.99
2017-05-14T01:01:21.175Z,99.99
2017-05-14T01:02:21.241Z,99.99
2017-05-14T01:03:21.224Z,99.99
2017-05-14T01:04:21.246Z,99.99
2017-05-14T01:05:21.270Z,99.99
2017-05-14T01:06:21.358Z,99.99
2017-05-14T01:07:21.314Z,99.99
2017-05-14T01:08:21.340Z,99.99
2017-05-14T01:09:21.404Z,99.99
2017-05-14T01:10:21.385Z,99.99
2017-05-14T01:11:21.409Z,99.99
2017-05-14T01:12:21.432Z,99.99
2017-05-14T01:13:21.457Z,99.99
2017-05-14T01:16:21.525Z,99.99
2017-05-14T01:17:21.547Z,99.99
2017-05-14T01:18:36.187Z,99.99
2017-05-14T01:19:21.596Z,99.99
2017-05-14T01:20:21.618Z,99.99
2017-05-14T01:21:21.640Z,99.99
2017-05-14T01:22:21.664Z,99.99
2017-05-14T01:23:21.690Z,99.99
2017-05-14T01:24:21.710Z,99.99
2017-05-14T01:25:21.736Z,99.99
2017-05-14T01:26:21.756Z,99.99
2017-05-14T01:27:21.779Z,99.99
2017-05-14T01:28:21.500Z,99.99
2017-05-14T01:29:21.828Z,99.99
2017-05-14T01:30:21.852Z,99.99
2017-05-14T01:31:21.875Z,99.99
2017-05-14T01:32:21.894Z,99.99
2017-05-14T01:33:21.614Z,99.99
2017-05-14T01:34:36.558Z,99.99
2017-05-14T01:35:21.964Z,99.99
2017-05-14T01:36:21.989Z,99.99
2017-05-14T01:37:22.010Z,99.99
2017-05-14T01:38:22.034Z,99.99
2017-05-14T01:39:22.057Z,99.99
2017-05-14T01:40:22.079Z,99.99
2017-05-14T01:41:22.103Z,99.99
2017-05-14T01:42:22.125Z,99.99
2017-05-14T01:44:22.172Z,99.99
2017-05-14T01:45:22.194Z,99.99
2017-05-14T01:46:22.220Z,99.99
2017-05-14T01:47:22.240Z,99.99
2017-05-14T01:48:22.267Z,99.99
2017-05-14T01:49:22.290Z,99.99
2017-05-14T01:50:36.926Z,99.99
2017-05-14T01:51:22.333Z,99.99
2017-05-14T01:52:22.356Z,99.99
2017-05-14T01:53:22.382Z,99.99
2017-05-14T01:54:22.402Z,99.99
2017-05-14T01:55:22.424Z,99.99
2017-05-14T01:56:22.448Z,99.99
2017-05-14T01:57:22.472Z,99.99
2017-05-14T01:58:22.496Z,99.99
2017-05-14T01:59:22.213Z,99.99
2017-05-14T02:00:22.543Z,99.99
2017-05-14T02:01:22.563Z,99.99
2017-05-14T02:03:22.610Z,99.99
2017-05-14T02:04:22.633Z,99.99
2017-05-14T02:05:22.657Z,99.99
2017-05-14T02:06:37.346Z,99.99
2017-05-14T02:07:22.703Z,99.99
2017-05-14T02:08:22.726Z,99.99
2017-05-14T02:09:22.749Z,99.99
2017-05-14T02:10:22.774Z,99.99
2017-05-14T02:11:22.795Z,99.99
2017-05-14T02:12:22.816Z,99.99
2017-05-14T02:13:22.840Z,99.99
2017-05-14T02:14:22.863Z,99.99
2017-05-14T02:15:22.886Z,99.99
2017-05-14T02:16:22.909Z,99.99
2017-05-14T02:17:22.930Z,99.99
2017-05-14T02:19:22.979Z,99.99
2017-05-14T02:20:23.001Z,99.99
2017-05-14T02:21:37.641Z,99.99
2017-05-14T02:22:23.049Z,99.99
2017-05-14T02:23:22.768Z,99.99
2017-05-14T02:24:23.094Z,99.99
2017-05-14T02:25:23.117Z,99.99
2017-05-14T02:26:23.140Z,99.99
2017-05-14T02:27:23.162Z,99.99
2017-05-14T02:28:23.183Z,99.99
2017-05-14T02:29:23.207Z,99.99
2017-05-14T02:30:23.231Z,99.99
2017-05-14T02:31:23.252Z,99.99
2017-05-14T02:32:23.275Z,99.99
2017-05-14T02:33:23.299Z,99.99
2017-05-14T02:34:23.322Z,99.99
2017-05-14T02:35:23.343Z,99.99
2017-05-14T02:36:23.371Z,99.99
2017-05-14T02:37:23.390Z,99.99
2017-05-14T02:38:23.412Z,99.99
2017-05-14T02:39:23.132Z,99.99
2017-05-14T02:40:23.154Z,99.99
2017-05-14T02:41:23.478Z,99.99
2017-05-14T02:42:23.503Z,99.99
2017-05-14T02:43:23.528Z,99.99
2017-05-14T02:44:23.249Z,99.99
2017-05-14T02:45:23.571Z,99.99
2017-05-14T02:46:23.593Z,99.99
2017-05-14T02:47:23.621Z,99.99
2017-05-14T02:48:23.640Z,99.99
2017-05-14T02:49:23.665Z,99.99
2017-05-14T02:50:23.381Z,99.99
2017-05-14T02:51:23.716Z,99.99
2017-05-14T02:52:23.729Z,99.99
2017-05-14T02:53:38.370Z,99.99
2017-05-14T02:54:23.778Z,99.99
2017-05-14T02:55:23.799Z,99.99
2017-05-14T02:56:23.820Z,99.99
2017-05-14T02:57:23.843Z,99.99
2017-05-14T02:58:23.916Z,99.99
2017-05-14T02:59:23.891Z,99.99
2017-05-14T03:00:23.912Z,99.99
2017-05-14T03:01:23.935Z,99.99
2017-05-14T03:02:23.957Z,99.99
2017-05-14T03:03:24.022Z,99.99
2017-05-14T03:04:24.311Z,99.99
2017-05-14T03:07:24.072Z,99.99
2017-05-14T03:08:24.095Z,99.99
2017-05-14T03:09:38.734Z,99.99
2017-05-14T03:10:24.141Z,99.99
2017-05-14T03:11:24.162Z,99.99
2017-05-14T03:12:24.186Z,99.99
2017-05-14T03:13:24.209Z,99.99
2017-05-14T03:14:24.233Z,99.99
2017-05-14T03:15:24.254Z,99.99
2017-05-14T03:16:24.278Z,99.99
2017-05-14T03:17:24.301Z,99.99
2017-05-14T03:18:24.322Z,99.99
2017-05-14T03:19:24.346Z,99.99
2017-05-14T03:20:24.368Z,99.99
2017-05-14T03:21:24.397Z,99.99
2017-05-14T03:22:24.413Z,99.99
2017-05-14T03:23:24.440Z,99.99
2017-05-14T03:24:24.460Z,99.99
2017-05-14T03:25:39.398Z,99.99
2017-05-14T03:26:24.506Z,99.99
2017-05-14T03:27:24.528Z,99.99
2017-05-14T03:28:24.551Z,99.99
2017-05-14T03:29:24.571Z,99.99
2017-05-14T03:30:24.595Z,99.99
2017-05-14T03:31:24.622Z,99.99
2017-05-14T03:32:24.640Z,99.99
2017-05-14T03:33:24.665Z,99.99
2017-05-14T03:34:24.691Z,99.99
2017-05-14T03:35:24.707Z,99.99
2017-05-14T03:36:24.733Z,99.99
2017-05-14T03:37:24.449Z,99.99
2017-05-14T03:39:24.493Z,99.99
2017-05-14T03:40:24.822Z,99.99
2017-05-14T03:41:39.460Z,99.99
2017-05-14T03:42:24.562Z,99.99
2017-05-14T03:43:24.890Z,99.99
2017-05-14T03:44:24.911Z,99.99
2017-05-14T03:45:24.935Z,99.99
2017-05-14T03:46:24.957Z,99.99
2017-05-14T03:47:24.979Z,99.99
2017-05-14T03:48:25.001Z,99.99
2017-05-14T03:49:25.025Z,99.99
2017-05-14T03:50:25.049Z,99.99
2017-05-14T03:51:25.069Z,99.99
2017-05-14T03:52:25.094Z,99.99
2017-05-14T03:53:25.120Z,99.99
2017-05-14T03:55:25.168Z,99.99
2017-05-14T03:56:39.801Z,99.99
2017-05-14T03:57:25.207Z,99.99
2017-05-14T03:58:25.229Z,99.99
2017-05-14T03:59:25.256Z,99.99
2017-05-14T04:00:25.276Z,99.99
2017-05-14T04:01:25.297Z,99.99
2017-05-14T04:02:25.320Z,99.99
2017-05-14T04:03:25.346Z,99.99
2017-05-14T04:04:25.366Z,99.99
2017-05-14T04:05:25.387Z,99.99
2017-05-14T04:06:25.410Z,99.99
2017-05-14T04:07:25.433Z,99.99
2017-05-14T04:09:25.480Z,99.99
2017-05-14T04:10:25.505Z,99.99
2017-05-14T04:11:25.525Z,99.99
2017-05-14T04:12:25.547Z,99.99
2017-05-14T04:13:25.572Z,99.99
2017-05-14T04:14:25.596Z,99.99
2017-05-14T04:15:25.616Z,99.99
2017-05-14T04:16:25.334Z,99.99
2017-05-14T04:17:25.356Z,99.99
2017-05-14T04:18:25.686Z,99.99
2017-05-14T04:19:25.709Z,99.99
2017-05-14T04:20:25.734Z,99.99
2017-05-14T04:21:25.754Z,99.99
2017-05-14T04:22:25.775Z,99.99
2017-05-14T04:23:25.801Z,99.99
2017-05-14T04:25:25.846Z,99.99
2017-05-14T04:26:25.867Z,99.99
2017-05-14T04:27:25.888Z,99.99
2017-05-14T04:28:40.529Z,99.99
2017-05-14T04:29:25.935Z,99.99
2017-05-14T04:30:25.958Z,99.99
2017-05-14T04:31:25.982Z,99.99
2017-05-14T04:32:26.003Z,99.99
2017-05-14T04:33:26.028Z,99.99
2017-05-14T04:34:26.050Z,99.99
2017-05-14T04:35:26.072Z,99.99
2017-05-14T04:36:26.096Z,99.99
2017-05-14T04:37:26.121Z,99.99
2017-05-14T04:38:26.140Z,99.99
2017-05-14T04:39:26.170Z,99.99
2017-05-14T04:40:26.190Z,99.99
2017-05-14T04:42:26.235Z,99.99
2017-05-14T04:43:26.257Z,99.99
2017-05-14T04:44:40.898Z,99.99
2017-05-14T04:45:26.304Z,99.99
2017-05-14T04:46:26.330Z,99.99
2017-05-14T04:47:26.351Z,99.99
2017-05-14T04:48:26.375Z,99.99
2017-05-14T04:49:26.399Z,99.99
2017-05-14T04:50:26.419Z,99.99
2017-05-14T04:51:26.443Z,99.99
2017-05-14T04:52:26.466Z,99.99
2017-05-14T04:53:26.494Z,99.99
2017-05-14T04:54:26.513Z,99.99
2017-05-14T04:55:26.542Z,99.99
2017-05-14T04:56:26.560Z,99.99
2017-05-14T04:57:26.590Z,99.99
2017-05-14T04:58:26.607Z,99.99
2017-05-14T04:59:26.629Z,99.99
2017-05-14T05:00:41.270Z,99.99
2017-05-14T05:01:26.676Z,99.99
2017-05-14T05:02:26.701Z,99.99
2017-05-14T05:03:26.723Z,99.99
2017-05-14T05:04:26.746Z,99.99
2017-05-14T05:05:26.777Z,99.99
2017-05-14T05:06:26.795Z,99.99
2017-05-14T05:07:26.818Z,99.99
2017-05-14T05:08:26.841Z,99.99
2017-05-14T05:09:26.867Z,99.99
2017-05-14T05:10:26.888Z,99.99
2017-05-14T05:11:26.913Z,99.99
2017-05-14T05:14:26.984Z,99.99
2017-05-14T05:15:27.007Z,99.99
2017-05-14T05:16:41.647Z,99.99
2017-05-14T05:17:27.057Z,99.99
2017-05-14T05:18:27.134Z,99.99
2017-05-14T05:19:27.102Z,99.99
2017-05-14T05:20:27.127Z,99.99
2017-05-14T05:21:27.151Z,99.99
2017-05-14T05:22:27.174Z,99.99
2017-05-14T05:23:27.206Z,99.99
2017-05-14T05:24:27.224Z,99.99
2017-05-14T05:25:27.247Z,99.99
2017-05-14T05:27:27.298Z,99.99
2017-05-14T05:29:27.345Z,98.57
2017-05-14T05:30:27.368Z,97.52
2017-05-14T05:31:42.010Z,95.84
2017-05-14T05:32:27.121Z,95.75
2017-05-14T05:33:27.443Z,95.07
2017-05-14T05:34:27.467Z,94.12
2017-05-14T05:35:27.491Z,93.82
2017-05-14T05:36:27.517Z,94.88
2017-05-14T05:37:27.541Z,93.68
2017-05-14T05:38:27.567Z,94.31
2017-05-14T05:39:27.590Z,94.02
2017-05-14T05:40:27.614Z,93.82
2017-05-14T05:41:27.640Z,92.58
2017-05-14T05:42:27.361Z,91.76
2017-05-14T05:43:27.690Z,91.09
2017-05-14T05:44:27.717Z,90.37
2017-05-14T05:45:27.741Z,90.17
2017-05-14T05:46:27.766Z,89.16
2017-05-14T05:47:27.793Z,87.34
2017-05-14T05:48:27.816Z,87.53
2017-05-14T05:49:27.842Z,87.09
2017-05-14T05:50:27.869Z,85.02
2017-05-14T05:51:27.894Z,83.33
2017-05-14T05:52:27.919Z,81.58
2017-05-14T05:53:27.949Z,78.63
2017-05-14T05:54:27.974Z,76.42
2017-05-14T05:55:28.001Z,74.57
2017-05-14T05:56:28.028Z,72.8
2017-05-14T05:57:28.057Z,71.39
2017-05-14T05:58:28.087Z,70.46
2017-05-14T05:59:28.113Z,69.04
2017-05-14T06:00:28.144Z,67.24
2017-05-14T06:01:28.171Z,67.05
2017-05-14T06:02:28.200Z,66.6
2017-05-14T06:03:42.849Z,64.01
2017-05-14T06:04:28.262Z,63.75
2017-05-14T06:05:28.292Z,63.65
2017-05-14T06:06:28.323Z,63.72
2017-05-14T06:07:28.354Z,63.17
2017-05-14T06:08:28.385Z,61.24
2017-05-14T06:09:28.419Z,61.29
2017-05-14T06:10:28.449Z,60.55
2017-05-14T06:11:28.177Z,60.35
2017-05-14T06:12:28.513Z,59.97
2017-05-14T06:13:28.545Z,59.77
2017-05-14T06:14:28.578Z,58.73
2017-05-14T06:16:28.646Z,57.89
2017-05-14T06:17:28.679Z,56.56
2017-05-14T06:18:28.713Z,55.39
2017-05-14T06:19:43.365Z,56.75
2017-05-14T06:20:28.779Z,55.41
2017-05-14T06:21:28.814Z,54.76
2017-05-14T06:22:28.851Z,54.28
2017-05-14T06:23:28.884Z,53.33
2017-05-14T06:24:28.916Z,53.26
2017-05-14T06:25:28.951Z,53.33
2017-05-14T06:26:28.986Z,53.52
2017-05-14T06:27:29.021Z,52.09
2017-05-14T06:28:29.058Z,52.38
2017-05-14T06:29:29.090Z,52.77
2017-05-14T06:31:29.164Z,51.46
2017-05-14T06:32:29.197Z,50.87
2017-05-14T06:33:29.231Z,51.24
2017-05-14T06:34:29.269Z,50.38
2017-05-14T06:35:43.923Z,50.6
2017-05-14T06:36:29.338Z,49.54
2017-05-14T06:37:29.374Z,49.56
2017-05-14T06:38:29.412Z,49.34
2017-05-14T06:39:29.447Z,49.24
2017-05-14T06:40:29.489Z,48.39
2017-05-14T06:41:29.519Z,49.15
2017-05-14T06:42:29.556Z,48.58
2017-05-14T06:43:29.594Z,48.88
2017-05-14T06:44:29.629Z,48.58
2017-05-14T06:45:29.664Z,47.73
2017-05-14T06:46:29.699Z,48.19
2017-05-14T06:48:29.776Z,49.24
2017-05-14T06:49:29.811Z,50.85
2017-05-14T06:50:29.846Z,51.97
2017-05-14T06:51:44.502Z,52.33
2017-05-14T06:52:29.922Z,51.87
2017-05-14T06:53:29.956Z,53.86
2017-05-14T06:54:29.992Z,53.28
2017-05-14T06:56:30.068Z,53.11
2017-05-14T06:57:30.102Z,54.25
2017-05-14T06:58:30.141Z,53.06
2017-05-14T06:59:30.183Z,52.04
2017-05-14T07:00:30.219Z,51.58
2017-05-14T07:01:30.249Z,51.21
2017-05-14T07:02:29.983Z,52.33
2017-05-14T07:03:30.322Z,51.94
2017-05-14T07:05:30.396Z,50.8
2017-05-14T07:06:45.055Z,50.34
2017-05-14T07:07:30.472Z,49.39
2017-05-14T07:08:30.508Z,48.34
2017-05-14T07:09:30.548Z,48.29
2017-05-14T07:10:30.582Z,47.14
2017-05-14T07:11:30.619Z,47.46
2017-05-14T07:12:30.353Z,46.97
2017-05-14T07:13:30.391Z,47.56
2017-05-14T07:14:30.732Z,49.02
2017-05-14T07:15:30.768Z,49.88
2017-05-14T07:17:30.843Z,48.34
2017-05-14T07:18:30.879Z,48.24
2017-05-14T07:19:30.919Z,49.02
2017-05-14T07:20:30.955Z,49.39
2017-05-14T07:21:30.991Z,48.05
2017-05-14T07:22:31.031Z,49.54
2017-05-14T07:23:31.066Z,49.58
2017-05-14T07:24:31.105Z,49.12
2017-05-14T07:25:31.140Z,48.34
2017-05-14T07:26:31.181Z,48.24
2017-05-14T07:27:31.217Z,48.44
2017-05-14T07:28:31.252Z,49.27
2017-05-14T07:29:31.291Z,49.49
2017-05-14T07:30:31.327Z,50.21
2017-05-14T07:31:31.364Z,50.29
2017-05-14T07:32:31.402Z,50.48
2017-05-14T07:33:31.439Z,50.04
2017-05-14T07:36:31.551Z,49.68
2017-05-14T07:37:31.590Z,48.68
2017-05-14T07:38:46.246Z,48.85
2017-05-14T07:39:31.662Z,48.9
2017-05-14T07:40:31.702Z,48.29
2017-05-14T07:41:31.739Z,47.8
2017-05-14T07:42:31.775Z,48.19
2017-05-14T07:43:31.813Z,48.1
2017-05-14T07:44:31.851Z,50.21
2017-05-14T07:45:31.886Z,50.75
2017-05-14T07:46:31.928Z,51.23
2017-05-14T07:47:31.962Z,52.19
2017-05-14T07:48:31.997Z,52.09
2017-05-14T07:49:32.035Z,51.31
2017-05-14T07:52:32.147Z,49.49
2017-05-14T07:53:32.184Z,47.46
2017-05-14T07:54:46.841Z,46.73
2017-05-14T07:55:32.259Z,45.68
2017-05-14T07:56:32.295Z,44.41
2017-05-14T07:57:32.334Z,45.78
2017-05-14T07:58:32.369Z,44.87
2017-05-14T07:59:32.405Z,43.98
2017-05-14T08:00:32.444Z,44.87
2017-05-14T08:01:32.176Z,43.8
2017-05-14T08:02:32.517Z,44.31
2017-05-14T08:03:32.554Z,47.36
2017-05-14T08:04:32.590Z,48.34
2017-05-14T08:06:32.362Z,49.49
2017-05-14T08:07:32.700Z,48.27
2017-05-14T08:08:32.435Z,46.83
2017-05-14T08:09:32.776Z,46.08
2017-05-14T08:10:47.429Z,44.07
2017-05-14T08:11:32.543Z,43.98
2017-05-14T08:12:32.883Z,43.98
2017-05-14T08:13:32.919Z,44.17
2017-05-14T08:14:32.955Z,42.85
2017-05-14T08:15:32.689Z,42.75
2017-05-14T08:16:32.727Z,43.78
2017-05-14T08:17:32.762Z,45.47
2017-05-14T08:18:33.103Z,44.96
2017-05-14T08:19:33.137Z,46.64
2017-05-14T08:20:33.174Z,45
2017-05-14T08:21:33.212Z,45.78
2017-05-14T08:23:33.286Z,45.29
2017-05-14T08:24:33.323Z,44.42
2017-05-14T08:25:33.360Z,44.4
2017-05-14T08:26:48.014Z,45.45
2017-05-14T08:27:33.127Z,46.57
2017-05-14T08:28:33.467Z,47.37
2017-05-14T08:29:33.503Z,46.71
2017-05-14T08:30:33.540Z,45.94
2017-05-14T08:31:33.578Z,43.85
2017-05-14T08:32:33.657Z,42.9
2017-05-14T08:33:33.351Z,43.93
2017-05-14T08:34:33.380Z,43.1
2017-05-14T08:35:33.727Z,41.38
2017-05-14T08:36:33.452Z,40.27
2017-05-14T08:38:33.829Z,39.51
2017-05-14T08:39:33.866Z,41.05
2017-05-14T08:40:33.902Z,40.94
2017-05-14T08:41:48.559Z,43.1
2017-05-14T08:42:33.975Z,44.1
2017-05-14T08:43:34.010Z,44.55
2017-05-14T08:44:34.046Z,44.28
2017-05-14T08:45:34.082Z,43.79
2017-05-14T08:46:34.118Z,42.79
2017-05-14T08:47:34.153Z,41.25
2017-05-14T08:48:34.189Z,38.45
2017-05-14T08:49:34.228Z,40.7
2017-05-14T08:50:34.260Z,39.76
2017-05-14T08:51:34.298Z,41.35
2017-05-14T08:52:34.336Z,39.31
2017-05-14T08:54:34.403Z,40.48
2017-05-14T08:55:34.440Z,39.23
2017-05-14T08:56:34.477Z,38.18
2017-05-14T08:57:34.517Z,37.89
2017-05-14T08:58:34.548Z,40.43
2017-05-14T08:59:34.583Z,38.96
2017-05-14T09:00:34.620Z,39.45
2017-05-14T09:01:34.804Z,39.37
2017-05-14T09:02:34.691Z,40.89
2017-05-14T09:03:34.775Z,42.3
2017-05-14T09:04:34.766Z,42.02
2017-05-14T09:05:34.799Z,41.09
2017-05-14T09:06:34.837Z,41.95
2017-05-14T09:07:34.873Z,40.23
2017-05-14T09:08:34.907Z,38.2
2017-05-14T09:09:34.639Z,37.63
2017-05-14T09:10:34.677Z,36.87
2017-05-14T09:11:34.711Z,37.47
2017-05-14T09:12:34.748Z,37.96
2017-05-14T09:13:49.708Z,37.63
2017-05-14T09:14:34.819Z,38.75
2017-05-14T09:15:34.856Z,40.27
2017-05-14T09:16:35.196Z,43.01
2017-05-14T09:17:35.232Z,44.14
2017-05-14T09:18:35.292Z,44.06
2017-05-14T09:19:35.302Z,42.53
2017-05-14T09:20:35.035Z,42.18
2017-05-14T09:21:35.372Z,41.42
2017-05-14T09:22:35.409Z,40.86
2017-05-14T09:23:35.441Z,39.22
2017-05-14T09:24:35.479Z,39.31
2017-05-14T09:25:35.208Z,39.86
2017-05-14T09:27:35.584Z,40.23
2017-05-14T09:28:35.616Z,40.8
2017-05-14T09:29:50.272Z,40.99
2017-05-14T09:30:35.696Z,41.4
2017-05-14T09:31:35.720Z,41.4
2017-05-14T09:32:35.756Z,40.76
2017-05-14T09:33:35.795Z,38.77
2017-05-14T09:34:35.825Z,39.28
2017-05-14T09:35:35.861Z,38.1
2017-05-14T09:36:35.896Z,37.77
2017-05-14T09:37:35.939Z,37.3
2017-05-14T09:38:35.965Z,38.16
2017-05-14T09:39:36.002Z,38.35
2017-05-14T09:40:36.040Z,39.49
2017-05-14T09:43:36.143Z,37.96
2017-05-14T09:44:36.177Z,38.28
2017-05-14T09:45:50.831Z,38.09
2017-05-14T09:46:36.251Z,37.3
2017-05-14T09:47:36.288Z,37.73
2017-05-14T09:48:36.318Z,35.69
2017-05-14T09:49:36.362Z,35.79
2017-05-14T09:50:36.387Z,36.4
2017-05-14T09:51:36.423Z,37.79
2017-05-14T09:52:36.458Z,35.65
2017-05-14T09:53:36.493Z,35.65
2017-05-14T09:54:36.526Z,35.93
2017-05-14T09:56:36.597Z,36.87
2017-05-14T09:59:36.703Z,38.22
2017-05-14T10:00:36.737Z,38.81
2017-05-14T10:01:51.392Z,39.37
2017-05-14T10:02:36.807Z,41.85
2017-05-14T10:03:36.842Z,41.77
2017-05-14T10:04:36.878Z,41.6
2017-05-14T10:05:36.911Z,39.2
2017-05-14T10:06:36.948Z,38.61
2017-05-14T10:07:36.676Z,39.51
2017-05-14T10:08:37.016Z,37.48
2017-05-14T10:09:37.049Z,37.65
2017-05-14T10:10:37.085Z,38.12
2017-05-14T10:11:37.119Z,39.69
2017-05-14T10:12:37.151Z,39.04
2017-05-14T10:14:37.221Z,38.92
2017-05-14T10:15:37.257Z,39.14
2017-05-14T10:16:51.910Z,38.28
2017-05-14T10:17:37.324Z,38.38
2017-05-14T10:18:37.356Z,38.57
2017-05-14T10:19:37.440Z,38.28
2017-05-14T10:20:37.426Z,38.57
2017-05-14T10:21:37.466Z,39.41
2017-05-14T10:22:37.495Z,40.33
2017-05-14T10:23:37.528Z,41.38
2017-05-14T10:24:37.563Z,42.11
2017-05-14T10:25:37.600Z,42
2017-05-14T10:26:37.631Z,42.9
2017-05-14T10:27:37.668Z,43.55
2017-05-14T10:28:37.697Z,43.36
2017-05-14T10:29:37.731Z,42.33
2017-05-14T10:30:37.769Z,44.06
2017-05-14T10:31:37.803Z,44.06
2017-05-14T10:32:37.836Z,44.28
2017-05-14T10:33:37.866Z,44.55
2017-05-14T10:34:37.899Z,46.18
2017-05-14T10:35:37.934Z,46.3
2017-05-14T10:36:37.966Z,45.84
2017-05-14T10:37:37.999Z,44.49
2017-05-14T10:38:38.034Z,45.37
2017-05-14T10:39:38.070Z,44.01
2017-05-14T10:40:38.104Z,43.33
2017-05-14T10:41:38.136Z,43.44
2017-05-14T10:44:38.233Z,43.01
2017-05-14T10:45:38.268Z,42.63
2017-05-14T10:46:38.301Z,42.35
2017-05-14T10:47:38.335Z,42.72
2017-05-14T10:48:52.987Z,42.63
2017-05-14T10:49:38.400Z,43.58
2017-05-14T10:50:38.434Z,43.79
2017-05-14T10:51:38.467Z,42.74
2017-05-14T10:52:38.499Z,41.5
2017-05-14T10:53:38.538Z,40.72
2017-05-14T10:54:38.568Z,40.91
2017-05-14T10:55:38.598Z,38.57
2017-05-14T10:56:38.633Z,39.72
2017-05-14T10:57:38.666Z,41.16
2017-05-14T10:58:38.700Z,43.6
2017-05-14T10:59:38.732Z,42.35
2017-05-14T11:00:38.769Z,41.79
2017-05-14T11:01:38.798Z,42.84
2017-05-14T11:02:38.838Z,43.7
2017-05-14T11:03:38.864Z,44.18
2017-05-14T11:04:53.516Z,44.26
2017-05-14T11:05:38.930Z,44.33
2017-05-14T11:06:38.962Z,45.57
2017-05-14T11:07:38.995Z,45.17
2017-05-14T11:08:38.723Z,44.85
2017-05-14T11:09:39.059Z,45.62
2017-05-14T11:10:39.094Z,44.17
2017-05-14T11:11:39.124Z,43.54
2017-05-14T11:12:39.160Z,45.43
2017-05-14T11:13:38.885Z,45.55
2017-05-14T11:14:38.918Z,46.33
2017-05-14T11:15:38.951Z,45.94
2017-05-14T11:17:39.317Z,46.55
2017-05-14T11:18:39.046Z,45.57
2017-05-14T11:19:39.380Z,46.35
2017-05-14T11:20:54.032Z,46.62
2017-05-14T11:21:39.448Z,46.52
2017-05-14T11:22:39.175Z,47.64
2017-05-14T11:23:39.509Z,48
2017-05-14T11:24:39.542Z,47.52
2017-05-14T11:25:39.571Z,48.1
2017-05-14T11:26:39.607Z,48.69
2017-05-14T11:27:39.634Z,48.97
2017-05-14T11:28:39.666Z,50.6
2017-05-14T11:29:39.701Z,50.43
2017-05-14T11:30:39.731Z,50.7
2017-05-14T11:31:39.807Z,50.99
2017-05-14T11:33:39.823Z,51.93
2017-05-14T11:34:39.855Z,52.12
2017-05-14T11:35:39.885Z,51.09
2017-05-14T11:36:54.534Z,51.28
2017-05-14T11:37:39.950Z,51.84
2017-05-14T11:38:39.979Z,52.06
2017-05-14T11:39:40.010Z,50.43
2017-05-14T11:40:40.039Z,50.62
2017-05-14T11:41:40.071Z,50.82
2017-05-14T11:42:40.099Z,51.35
2017-05-14T11:43:40.131Z,52.03
2017-05-14T11:44:40.162Z,51.18
2017-05-14T11:45:40.192Z,50.89
2017-05-14T11:46:40.226Z,49.17
2017-05-14T11:47:39.951Z,48.8
2017-05-14T11:48:40.290Z,49
2017-05-14T11:50:40.346Z,47.93
2017-05-14T11:51:54.996Z,48.61
2017-05-14T11:52:40.413Z,48.42
2017-05-14T11:53:40.438Z,48.9
2017-05-14T11:54:40.472Z,49.17
2017-05-14T11:55:40.499Z,49.66
2017-05-14T11:56:40.531Z,49.07
2017-05-14T11:57:40.561Z,49.17
2017-05-14T11:58:40.593Z,50.04
2017-05-14T11:59:40.622Z,49.27
2017-05-14T12:00:40.699Z,48.78
2017-05-14T12:01:40.682Z,49.82
2017-05-14T12:03:40.745Z,49.8
2017-05-14T12:05:40.804Z,49.63
2017-05-14T12:06:40.836Z,49.34
2017-05-14T12:07:40.866Z,48.76
2017-05-14T12:08:40.896Z,48.85
2017-05-14T12:09:40.927Z,48.59
2017-05-14T12:10:40.958Z,48.08
2017-05-14T12:11:40.686Z,48
2017-05-14T12:12:41.019Z,47.35
2017-05-14T12:13:41.048Z,47.45
2017-05-14T12:14:41.078Z,47.45
2017-05-14T12:15:41.109Z,47.06
2017-05-14T12:16:41.140Z,47.23
2017-05-14T12:17:41.170Z,47.72
2017-05-14T12:18:41.199Z,47.98
2017-05-14T12:19:41.229Z,48.27
2017-05-14T12:20:41.256Z,47.89
2017-05-14T12:21:41.291Z,48.18
2017-05-14T12:22:41.320Z,48.27
2017-05-14T12:23:55.968Z,48.27
2017-05-14T12:24:41.379Z,48.93
2017-05-14T12:25:41.415Z,49.22
2017-05-14T12:26:41.441Z,49.51
2017-05-14T12:27:41.471Z,49.1
2017-05-14T12:28:41.504Z,49.68
2017-05-14T12:29:41.530Z,50.45
2017-05-14T12:30:41.561Z,50.35
2017-05-14T12:31:41.611Z,50.07
2017-05-14T12:32:41.620Z,50.07
2017-05-14T12:33:41.650Z,50.74
2017-05-14T12:34:41.679Z,49.58
2017-05-14T12:35:41.709Z,49
2017-05-14T12:37:41.769Z,49.37
2017-05-14T12:38:41.800Z,48.49
2017-05-14T12:39:56.448Z,49.24
2017-05-14T12:40:41.858Z,49.73
2017-05-14T12:41:41.887Z,48.49
2017-05-14T12:42:41.917Z,48.76
2017-05-14T12:43:41.947Z,48.95
2017-05-14T12:44:41.977Z,48.11
2017-05-14T12:45:42.004Z,48.59
2017-05-14T12:46:42.035Z,49.15
2017-05-14T12:47:42.066Z,50.21
2017-05-14T12:48:42.092Z,50.6
2017-05-14T12:49:42.122Z,50.7
2017-05-14T12:50:42.152Z,51.56
2017-05-14T12:51:42.183Z,51.56
2017-05-14T12:53:42.238Z,52.24
2017-05-14T12:54:42.268Z,52.34
2017-05-14T12:55:56.916Z,52.73
2017-05-14T12:56:42.327Z,52.82
2017-05-14T12:57:42.355Z,52.61
2017-05-14T12:58:42.384Z,53.19
2017-05-14T12:59:42.415Z,53.57
2017-05-14T13:00:42.443Z,53.86
2017-05-14T13:01:42.477Z,53.16
2017-05-14T13:02:42.503Z,53.86
2017-05-14T13:03:42.530Z,53.83
2017-05-14T13:04:42.558Z,54.8
2017-05-14T13:05:42.285Z,55.29
2017-05-14T13:06:42.617Z,59.34
2017-05-14T13:07:42.648Z,60.41
2017-05-14T13:08:42.675Z,60.18
2017-05-14T13:09:42.706Z,60.57
2017-05-14T13:10:42.730Z,60.54
2017-05-14T13:11:57.378Z,62.18
2017-05-14T13:12:42.790Z,62.47
2017-05-14T13:13:42.818Z,63.15
2017-05-14T13:14:42.847Z,64.4
2017-05-14T13:15:42.876Z,62.73
2017-05-14T13:16:42.903Z,64.47
2017-05-14T13:17:42.931Z,63.21
2017-05-14T13:18:42.961Z,63.85
2017-05-14T13:19:42.989Z,64.15
2017-05-14T13:20:43.017Z,63.76
2017-05-14T13:21:43.047Z,62.89
2017-05-14T13:24:43.133Z,65.17
2017-05-14T13:25:43.164Z,64.63
2017-05-14T13:26:57.806Z,63.47
2017-05-14T13:27:43.215Z,63.57
2017-05-14T13:28:43.242Z,64.98
2017-05-14T13:29:43.271Z,63.73
2017-05-14T13:30:43.299Z,64.4
2017-05-14T13:31:43.329Z,63.92
2017-05-14T13:32:43.355Z,64.59
2017-05-14T13:33:43.384Z,64.59
2017-05-14T13:34:43.411Z,64.02
2017-05-14T13:35:43.442Z,63.57
2017-05-14T13:36:43.467Z,64.02
2017-05-14T13:37:43.495Z,64.5
2017-05-14T13:38:43.522Z,65.17
2017-05-14T13:39:43.554Z,64.4
2017-05-14T13:40:43.578Z,64.5
2017-05-14T13:41:43.607Z,64.89
2017-05-14T13:42:43.633Z,64.69
2017-05-14T13:43:43.660Z,64.89
2017-05-14T13:44:43.689Z,65.17
2017-05-14T13:45:43.719Z,66.04
2017-05-14T13:46:43.744Z,65.17